Time;durP1;ratioP1;P1;durP2;ratioP2;P2;SDS_P1;SDS_P2;PMS_P1;PMS_P2;Temp;Humidity;BMP_temperature;BMP_pressure;BME280_temperature;BME280_humidity;BME280_pressure;Samples;Min_cycle;Max_cycle;Signal;HPM_P1;HPM_P2
2021/06/17 00:00:08;;;;;;;4.90;4.40;;;;;;;;;;5036489;28;20461;-63
2021/06/17 00:02:34;;;;;;;4.47;3.73;;;;;;;;;;5036371;28;20497;-63
2021/06/17 00:04:59;;;;;;;4.43;4.03;;;;;;;;;;5036985;28;20983;-63
2021/06/17 00:07:25;;;;;;;4.80;4.30;;;;;;;;;;5036338;28;20253;-63
2021/06/17 00:09:50;;;;;;;4.87;4.13;;;;;;;;;;5036647;28;20312;-62
2021/06/17 00:12:15;;;;;;;4.20;3.90;;;;;;;;;;5036495;28;20221;-62
2021/06/17 00:14:40;;;;;;;4.70;4.40;;;;;;;;;;5036242;28;20252;-63
2021/06/17 00:17:06;;;;;;;5.03;4.53;;;;;;;;;;5036400;28;20206;-62
2021/06/17 00:19:31;;;;;;;4.47;4.07;;;;;;;;;;5035011;28;20222;-63
2021/06/17 00:21:57;;;;;;;5.30;4.47;;;;;;;;;;5036429;28;20541;-63
2021/06/17 00:24:22;;;;;;;5.90;4.70;;;;;;;;;;5036444;28;20668;-63
2021/06/17 00:26:50;;;;;;;5.50;4.40;;;;;;;;;;5036091;28;20304;-63
2021/06/17 00:29:15;;;;;;;5.40;4.97;;;;;;;;;;5036179;28;20222;-63
2021/06/17 00:31:40;;;;;;;6.73;5.60;;;;;;;;;;5035960;28;20460;-63
2021/06/17 00:34:09;;;;;;;6.23;5.63;;;;;;;;;;5036260;28;20214;-63
2021/06/17 00:36:36;;;;;;;5.20;4.80;;;;;;;;;;5035895;28;20221;-63
2021/06/17 00:39:06;;;;;;;6.73;5.27;;;;;;;;;;5035104;28;20998;-62
2021/06/17 00:41:32;;;;;;;5.77;5.27;;;;;;;;;;5034707;28;20504;-63
2021/06/17 00:43:58;;;;;;;8.57;5.40;;;;;;;;;;5035588;28;20460;-62
2021/06/17 00:46:23;;;;;;;5.43;4.93;;;;;;;;;;5036004;28;20461;-62
2021/06/17 00:48:48;;;;;;;6.23;5.70;;;;;;;;;;5035674;28;20221;-63
2021/06/17 00:51:14;;;;;;;5.73;5.23;;;;;;;;;;5035938;28;20214;-62
2021/06/17 00:53:39;;;;;;;6.00;5.37;;;;;;;;;;5035551;28;20241;-63
2021/06/17 00:56:04;;;;;;;5.60;5.10;;;;;;;;;;5035735;28;20627;-63
2021/06/17 00:58:31;;;;;;;6.03;5.53;;;;;;;;;;5035486;28;20222;-61
2021/06/17 01:00:56;;;;;;;5.83;5.33;;;;;;;;;;5035625;28;20234;-63
2021/06/17 01:03:22;;;;;;;8.33;5.77;;;;;;;;;;5034755;28;20546;-63
2021/06/17 01:05:47;;;;;;;6.30;5.50;;;;;;;;;;5035191;28;20548;-63
2021/06/17 01:08:25;;;;;;;6.40;5.80;;;;;;;;;;5035627;28;20224;-62
2021/06/17 01:11:12;;;;;;;6.73;6.13;;;;;;;;;;5034251;28;20218;-63
2021/06/17 01:13:53;;;;;;;5.93;5.43;;;;;;;;;;5034581;28;20468;-63
2021/06/17 01:16:36;;;;;;;6.60;6.00;;;;;;;;;;5034626;28;20475;-63
2021/06/17 01:19:31;;;;;;;6.50;6.00;;;;;;;;;;5034291;28;20456;-63
2021/06/17 01:22:14;;;;;;;7.40;6.70;;;;;;;;;;5032112;28;20469;-63
2021/06/17 01:25:03;;;;;;;6.67;6.07;;;;;;;;;;5034861;28;20496;-63
2021/06/17 01:28:05;;;;;;;6.70;6.10;;;;;;;;;;5034171;28;20460;-63
2021/06/17 01:30:32;;;;;;;6.70;6.03;;;;;;;;;;5034613;28;20542;-63
2021/06/17 01:33:02;;;;;;;6.73;6.13;;;;;;;;;;5034153;28;20803;-63
2021/06/17 01:35:28;;;;;;;10.17;6.63;;;;;;;;;;5033661;28;20852;-63
2021/06/17 01:38:00;;;;;;;9.80;7.43;;;;;;;;;;5035062;28;20543;-63
2021/06/17 01:40:27;;;;;;;8.07;7.27;;;;;;;;;;5034489;28;20475;-63
2021/06/17 01:42:53;;;;;;;7.07;6.43;;;;;;;;;;5017224;28;20531;-63
2021/06/17 01:45:21;;;;;;;7.20;6.60;;;;;;;;;;5033505;28;20468;-62
2021/06/17 01:47:48;;;;;;;7.37;6.77;;;;;;;;;;5033851;28;20522;-63
2021/06/17 01:50:14;;;;;;;9.50;7.50;;;;;;;;;;5034673;28;20564;-63
2021/06/17 01:52:40;;;;;;;8.23;7.40;;;;;;;;;;5034218;28;20564;-61
2021/06/17 01:55:06;;;;;;;8.17;7.43;;;;;;;;;;5033391;28;20983;-63
2021/06/17 01:57:34;;;;;;;7.93;7.10;;;;;;;;;;5034172;28;20575;-62
2021/06/17 01:59:59;;;;;;;7.47;6.77;;;;;;;;;;5034670;28;20476;-63
2021/06/17 02:02:25;;;;;;;8.67;7.97;;;;;;;;;;5033296;28;20469;-64
2021/06/17 02:04:51;;;;;;;8.83;7.77;;;;;;;;;;5033603;28;20217;-63
2021/06/17 02:07:19;;;;;;;9.50;8.70;;;;;;;;;;5033505;28;20479;-63
2021/06/17 02:09:45;;;;;;;8.70;7.40;;;;;;;;;;5032966;28;20526;-63
2021/06/17 02:12:11;;;;;;;8.20;7.50;;;;;;;;;;5034439;28;20476;-62
2021/06/17 02:14:36;;;;;;;8.67;7.87;;;;;;;;;;5034145;28;20473;-63
2021/06/17 02:17:02;;;;;;;8.00;7.40;;;;;;;;;;5033508;28;20297;-62
2021/06/17 02:19:29;;;;;;;8.47;7.67;;;;;;;;;;5033823;28;20225;-63
2021/06/17 02:21:57;;;;;;;9.73;8.83;;;;;;;;;;5034143;28;20465;-63
2021/06/17 02:24:24;;;;;;;8.60;7.90;;;;;;;;;;5032925;28;20475;-63
2021/06/17 02:26:52;;;;;;;7.50;6.90;;;;;;;;;;5034354;28;20912;-63
2021/06/17 02:29:18;;;;;;;8.50;7.70;;;;;;;;;;5033142;28;20581;-63
2021/06/17 02:31:44;;;;;;;9.00;8.10;;;;;;;;;;5033768;28;20900;-63
2021/06/17 02:34:11;;;;;;;9.80;8.80;;;;;;;;;;5034189;28;20480;-62
2021/06/17 02:36:36;;;;;;;9.20;8.40;;;;;;;;;;5033565;28;20908;-63
2021/06/17 02:39:05;;;;;;;8.77;7.97;;;;;;;;;;5032860;28;20456;-63
2021/06/17 02:41:31;;;;;;;8.37;7.67;;;;;;;;;;5033203;28;20333;-66
2021/06/17 02:43:58;;;;;;;13.37;8.70;;;;;;;;;;5033116;28;20534;-66
2021/06/17 02:46:24;;;;;;;7.70;7.10;;;;;;;;;;5033623;28;20785;-64
2021/06/17 02:48:50;;;;;;;8.73;7.93;;;;;;;;;;5038103;28;20562;-65
2021/06/17 02:51:16;;;;;;;9.20;8.50;;;;;;;;;;5053234;28;20255;-65
2021/06/17 02:53:41;;;;;;;9.07;8.37;;;;;;;;;;5061799;28;20905;-65
2021/06/17 02:56:12;;;;;;;9.00;8.23;;;;;;;;;;5061521;28;20217;-65
2021/06/17 02:59:01;;;;;;;10.73;9.63;;;;;;;;;;5064483;28;20568;-65
2021/06/17 03:01:49;;;;;;;10.03;9.10;;;;;;;;;;5066312;28;20466;-64
2021/06/17 03:04:16;;;;;;;10.50;9.43;;;;;;;;;;5064978;28;20766;-65
2021/06/17 03:06:47;;;;;;;10.43;9.40;;;;;;;;;;5050722;28;20858;-65
2021/06/17 03:09:13;;;;;;;10.63;9.60;;;;;;;;;;5065842;28;20464;-65
2021/06/17 03:11:40;;;;;;;9.67;8.87;;;;;;;;;;5070881;28;20467;-65
2021/06/17 03:14:12;;;;;;;9.90;9.07;;;;;;;;;;5069626;28;20469;-66
2021/06/17 03:16:38;;;;;;;10.40;9.47;;;;;;;;;;5064058;28;20777;-65
2021/06/17 03:19:04;;;;;;;9.90;9.00;;;;;;;;;;5046480;28;20495;-66
2021/06/17 03:21:33;;;;;;;10.93;10.03;;;;;;;;;;5069370;28;20220;-65
2021/06/17 03:23:58;;;;;;;11.10;10.00;;;;;;;;;;5053072;28;20217;-65
2021/06/17 03:26:26;;;;;;;11.03;9.77;;;;;;;;;;5050486;28;20978;-65
2021/06/17 03:28:53;;;;;;;12.13;10.13;;;;;;;;;;5063660;28;20221;-65
2021/06/17 03:31:18;;;;;;;11.40;10.23;;;;;;;;;;5050304;28;20462;-66
2021/06/17 03:33:45;;;;;;;11.40;9.70;;;;;;;;;;5062466;28;20530;-65
2021/06/17 03:36:11;;;;;;;10.37;9.47;;;;;;;;;;5070749;28;20221;-65
2021/06/17 03:38:38;;;;;;;10.87;9.93;;;;;;;;;;5068658;28;20463;-65
2021/06/17 03:41:05;;;;;;;12.23;10.93;;;;;;;;;;5061976;28;20240;-66
2021/06/17 03:43:31;;;;;;;11.70;10.30;;;;;;;;;;5063089;28;20529;-66
2021/06/17 03:45:58;;;;;;;11.30;10.20;;;;;;;;;;5070398;28;20455;-66
2021/06/17 03:48:23;;;;;;;11.00;10.03;;;;;;;;;;5064544;28;20463;-67
2021/06/17 03:50:49;;;;;;;10.60;9.80;;;;;;;;;;5069718;28;20562;-67
2021/06/17 03:53:15;;;;;;;10.80;9.80;;;;;;;;;;5065665;28;20212;-67
2021/06/17 03:55:42;;;;;;;10.80;9.93;;;;;;;;;;5062793;28;20468;-66
2021/06/17 03:58:09;;;;;;;11.83;10.83;;;;;;;;;;5067031;28;20220;-69
2021/06/17 04:00:34;;;;;;;12.82;11.43;;;;;;;;;;5061811;28;20463;-63
2021/06/17 04:03:05;;;;;;;11.40;10.30;;;;;;;;;;5067077;28;20221;-64
2021/06/17 04:05:30;;;;;;;11.00;10.10;;;;;;;;;;5028599;28;20221;-63
2021/06/17 04:07:57;;;;;;;10.30;9.40;;;;;;;;;;5060034;28;20466;-63
2021/06/17 04:10:23;;;;;;;11.27;10.20;;;;;;;;;;5070636;28;20227;-63
2021/06/17 04:12:54;;;;;;;11.77;10.67;;;;;;;;;;5074864;28;20462;-63
2021/06/17 04:15:20;;;;;;;11.93;10.37;;;;;;;;;;5063102;28;20713;-64
2021/06/17 04:17:48;;;;;;;11.60;10.50;;;;;;;;;;5065259;28;20459;-64
2021/06/17 04:20:22;;;;;;;11.77;10.67;;;;;;;;;;5068032;28;20236;-64
2021/06/17 04:22:48;;;;;;;13.17;11.97;;;;;;;;;;5022411;28;20472;-63
2021/06/17 04:25:18;;;;;;;14.50;11.07;;;;;;;;;;5068748;28;20785;-64
2021/06/17 04:27:43;;;;;;;11.00;10.10;;;;;;;;;;5066813;28;20902;-64
2021/06/17 04:30:10;;;;;;;13.97;12.47;;;;;;;;;;5061363;28;20652;-64
2021/06/17 04:32:36;;;;;;;11.50;10.50;;;;;;;;;;5064706;28;20232;-64
2021/06/17 04:35:02;;;;;;;11.63;10.53;;;;;;;;;;5068014;28;20452;-63
2021/06/17 04:37:27;;;;;;;12.43;11.13;;;;;;;;;;5064933;28;20221;-63
2021/06/17 04:40:03;;;;;;;11.33;10.27;;;;;;;;;;5068807;28;20655;-63
2021/06/17 04:42:29;;;;;;;13.07;12.07;;;;;;;;;;5066314;28;20220;-63
2021/06/17 04:44:54;;;;;;;12.17;11.07;;;;;;;;;;5061919;28;20451;-64
2021/06/17 04:47:20;;;;;;;12.10;11.10;;;;;;;;;;5063615;28;20935;-63
2021/06/17 04:49:47;;;;;;;12.80;11.43;;;;;;;;;;5049230;28;20230;-64
2021/06/17 04:52:20;;;;;;;12.10;10.97;;;;;;;;;;5066992;28;20221;-64
2021/06/17 04:54:46;;;;;;;12.87;11.67;;;;;;;;;;5068078;28;20562;-63
2021/06/17 04:57:12;;;;;;;13.07;11.80;;;;;;;;;;5051019;28;20451;-64
2021/06/17 04:59:37;;;;;;;12.93;11.83;;;;;;;;;;5067184;28;20527;-63
2021/06/17 05:02:03;;;;;;;11.67;10.73;;;;;;;;;;5061904;28;20663;-64
2021/06/17 05:04:28;;;;;;;11.57;10.57;;;;;;;;;;5062738;28;20316;-64
2021/06/17 05:07:09;;;;;;;12.60;11.30;;;;;;;;;;5067413;28;20410;-63
2021/06/17 05:12:18;;;;;;;13.20;12.10;;;;;;;;;;5065043;28;20799;-64
2021/06/17 05:14:43;;;;;;;11.83;10.93;;;;;;;;;;5060163;28;20459;-63
2021/06/17 05:17:09;;;;;;;13.00;12.00;;;;;;;;;;5064945;28;20316;-63
2021/06/17 05:19:34;;;;;;;11.87;10.80;;;;;;;;;;5066977;28;20225;-63
2021/06/17 05:22:00;;;;;;;13.87;12.47;;;;;;;;;;5064719;28;20555;-63
2021/06/17 05:24:26;;;;;;;12.70;11.80;;;;;;;;;;5061761;28;20270;-63
2021/06/17 05:26:51;;;;;;;14.67;13.37;;;;;;;;;;5063937;28;20224;-63
2021/06/17 05:29:17;;;;;;;12.80;11.60;;;;;;;;;;5056992;28;20467;-64
2021/06/17 05:31:42;;;;;;;15.07;13.73;;;;;;;;;;5065621;28;20221;-63
2021/06/17 05:34:07;;;;;;;14.53;13.43;;;;;;;;;;5068271;28;20216;-65
2021/06/17 05:36:32;;;;;;;12.90;11.80;;;;;;;;;;5063487;28;20221;-64
2021/06/17 05:38:58;;;;;;;13.87;12.50;;;;;;;;;;5049710;28;20705;-65
2021/06/17 05:41:23;;;;;;;13.60;12.30;;;;;;;;;;5066026;28;20241;-65
2021/06/17 05:43:48;;;;;;;14.77;13.53;;;;;;;;;;5067805;28;20224;-65
2021/06/17 05:46:14;;;;;;;13.70;12.30;;;;;;;;;;5062810;28;20216;-64
2021/06/17 05:48:40;;;;;;;13.47;11.80;;;;;;;;;;5056304;28;20304;-63
2021/06/17 05:51:06;;;;;;;13.80;12.50;;;;;;;;;;5054058;28;20531;-64
2021/06/17 05:53:31;;;;;;;14.47;13.07;;;;;;;;;;5061008;28;20477;-65
2021/06/17 05:55:56;;;;;;;14.77;12.67;;;;;;;;;;5064539;28;20224;-64
2021/06/17 05:58:22;;;;;;;13.23;12.13;;;;;;;;;;5053675;28;20220;-65
2021/06/17 06:00:47;;;;;;;13.93;12.83;;;;;;;;;;5064573;28;20370;-64
2021/06/17 06:03:12;;;;;;;12.53;11.47;;;;;;;;;;5067700;28;20228;-64
2021/06/17 06:05:37;;;;;;;13.67;12.30;;;;;;;;;;5062675;28;20300;-63
2021/06/17 06:08:11;;;;;;;15.50;13.43;;;;;;;;;;5060606;28;20232;-64
2021/06/17 06:10:38;;;;;;;14.03;12.73;;;;;;;;;;5063772;28;20269;-64
2021/06/17 06:13:03;;;;;;;15.77;12.97;;;;;;;;;;5067452;28;20546;-64
2021/06/17 06:15:33;;;;;;;14.60;13.10;;;;;;;;;;5063082;28;20559;-63
2021/06/17 06:18:06;;;;;;;15.07;13.57;;;;;;;;;;5060029;28;20220;-65
2021/06/17 06:20:32;;;;;;;14.83;13.73;;;;;;;;;;5062791;28;20486;-64
2021/06/17 06:22:57;;;;;;;16.77;15.27;;;;;;;;;;5066981;28;20617;-64
2021/06/17 06:25:22;;;;;;;14.40;13.20;;;;;;;;;;5064834;28;20562;-63
2021/06/17 06:27:47;;;;;;;18.10;12.63;;;;;;;;;;5060088;28;20225;-64
2021/06/17 06:30:13;;;;;;;14.37;13.13;;;;;;;;;;5063273;28;20652;-64
2021/06/17 06:32:39;;;;;;;14.90;13.13;;;;;;;;;;5065949;28;20217;-62
2021/06/17 06:35:05;;;;;;;12.87;11.57;;;;;;;;;;5064495;28;20353;-64
2021/06/17 06:37:31;;;;;;;13.47;12.23;;;;;;;;;;5060429;28;20250;-64
2021/06/17 06:39:56;;;;;;;15.63;14.27;;;;;;;;;;5062923;28;20912;-63
2021/06/17 06:42:21;;;;;;;14.93;13.50;;;;;;;;;;5066603;28;20237;-63
2021/06/17 06:44:47;;;;;;;13.00;12.00;;;;;;;;;;5063586;28;20247;-64
2021/06/17 06:47:12;;;;;;;14.40;13.10;;;;;;;;;;5060106;28;20244;-64
2021/06/17 06:49:37;;;;;;;15.23;13.67;;;;;;;;;;5051685;28;20226;-65
2021/06/17 06:52:03;;;;;;;14.07;12.90;;;;;;;;;;5064431;28;20698;-64
2021/06/17 06:54:28;;;;;;;15.00;13.80;;;;;;;;;;5064325;28;20231;-64
2021/06/17 06:56:53;;;;;;;14.53;13.33;;;;;;;;;;5052253;28;20299;-65
2021/06/17 06:59:19;;;;;;;13.70;12.60;;;;;;;;;;5064094;28;20293;-65
2021/06/17 07:01:46;;;;;;;13.40;12.33;;;;;;;;;;5056077;28;20549;-63
2021/06/17 07:04:11;;;;;;;14.30;12.20;;;;;;;;;;5061668;28;20536;-64
2021/06/17 07:06:38;;;;;;;14.20;13.10;;;;;;;;;;5066053;28;20547;-63
2021/06/17 07:09:04;;;;;;;12.60;11.60;;;;;;;;;;5062642;28;20231;-64
2021/06/17 07:11:29;;;;;;;12.80;11.80;;;;;;;;;;5059530;28;20460;-64
2021/06/17 07:13:54;;;;;;;14.17;13.07;;;;;;;;;;5064199;28;20229;-63
2021/06/17 07:16:20;;;;;;;12.87;11.83;;;;;;;;;;5066494;28;20543;-63
2021/06/17 07:18:45;;;;;;;15.03;13.70;;;;;;;;;;5061868;28;20247;-64
2021/06/17 07:21:13;;;;;;;13.60;12.50;;;;;;;;;;5059583;28;20224;-64
2021/06/17 07:23:38;;;;;;;14.10;12.63;;;;;;;;;;5064158;28;20845;-64
2021/06/17 07:26:04;;;;;;;14.13;13.10;;;;;;;;;;5066297;28;20534;-64
2021/06/17 07:28:29;;;;;;;14.40;13.00;;;;;;;;;;5062326;28;20231;-63
2021/06/17 07:30:55;;;;;;;15.03;13.63;;;;;;;;;;5058457;28;20606;-64
2021/06/17 07:33:20;;;;;;;12.60;11.40;;;;;;;;;;5064378;28;20640;-64
2021/06/17 07:35:46;;;;;;;12.17;11.17;;;;;;;;;;5065014;28;20652;-65
2021/06/17 07:38:11;;;;;;;12.67;11.67;;;;;;;;;;5061467;28;20221;-64
2021/06/17 07:40:40;;;;;;;11.53;10.53;;;;;;;;;;5058295;28;20237;-64
2021/06/17 07:43:06;;;;;;;12.43;11.20;;;;;;;;;;5063641;28;20316;-64
2021/06/17 07:45:31;;;;;;;13.67;12.20;;;;;;;;;;5066688;28;20782;-64
2021/06/17 07:47:57;;;;;;;13.83;12.20;;;;;;;;;;5061388;28;20224;-64
2021/06/17 07:50:22;;;;;;;12.90;11.80;;;;;;;;;;5058303;28;20258;-63
2021/06/17 07:52:49;;;;;;;12.23;11.00;;;;;;;;;;5064892;28;20233;-63
2021/06/17 07:55:15;;;;;;;13.23;12.00;;;;;;;;;;5070043;28;20661;-64
2021/06/17 07:57:40;;;;;;;11.90;10.77;;;;;;;;;;5053275;28;20546;-64
2021/06/17 08:00:07;;;;;;;13.67;12.57;;;;;;;;;;5069480;28;20229;-64
2021/06/17 08:02:32;;;;;;;13.23;11.63;;;;;;;;;;5066950;28;20236;-64
2021/06/17 08:04:57;;;;;;;13.23;12.07;;;;;;;;;;5062437;28;20466;-64
2021/06/17 08:07:23;;;;;;;11.90;10.83;;;;;;;;;;5065694;28;20236;-64
2021/06/17 08:09:48;;;;;;;11.73;10.73;;;;;;;;;;5069389;28;20295;-63
2021/06/17 08:12:13;;;;;;;11.97;10.57;;;;;;;;;;5066143;28;20285;-63
2021/06/17 08:14:38;;;;;;;13.03;11.83;;;;;;;;;;5063107;28;20220;-64
2021/06/17 08:17:04;;;;;;;13.13;12.03;;;;;;;;;;5066605;28;20307;-64
2021/06/17 08:19:31;;;;;;;12.00;11.10;;;;;;;;;;5069677;28;20262;-63
2021/06/17 08:21:58;;;;;;;10.97;10.10;;;;;;;;;;5064990;28;20240;-63
2021/06/17 08:24:24;;;;;;;11.10;9.67;;;;;;;;;;5062606;28;20483;-63
2021/06/17 08:26:49;;;;;;;12.57;10.70;;;;;;;;;;5066685;28;20525;-63
2021/06/17 08:29:15;;;;;;;11.13;10.00;;;;;;;;;;5069459;28;20463;-66
2021/06/17 08:31:43;;;;;;;10.87;9.70;;;;;;;;;;5064831;28;20231;-64
2021/06/17 08:34:08;;;;;;;11.33;10.43;;;;;;;;;;5061991;28;20295;-64
2021/06/17 08:36:33;;;;;;;10.90;9.90;;;;;;;;;;5065065;28;20462;-63
2021/06/17 08:38:58;;;;;;;10.60;9.60;;;;;;;;;;5059934;28;20664;-65
2021/06/17 08:41:24;;;;;;;13.33;9.30;;;;;;;;;;5071054;28;20258;-64
2021/06/17 08:43:51;;;;;;;11.10;10.20;;;;;;;;;;5061794;28;20239;-64
2021/06/17 08:46:17;;;;;;;11.93;10.93;;;;;;;;;;5066122;28;20220;-64
2021/06/17 08:48:42;;;;;;;11.57;10.40;;;;;;;;;;5056071;28;20465;-64
2021/06/17 08:51:08;;;;;;;12.60;11.47;;;;;;;;;;5054980;28;20553;-65
2021/06/17 08:53:34;;;;;;;10.37;9.57;;;;;;;;;;5056148;28;20250;-64
2021/06/17 08:55:59;;;;;;;11.50;10.33;;;;;;;;;;5065242;28;20533;-64
2021/06/17 08:58:24;;;;;;;12.20;11.10;;;;;;;;;;5054044;28;20221;-64
2021/06/17 09:00:50;;;;;;;11.77;10.57;;;;;;;;;;5065329;28;20225;-63
2021/06/17 09:03:17;;;;;;;11.00;10.10;;;;;;;;;;5067457;28;20259;-64
2021/06/17 09:05:51;;;;;;;12.57;9.70;;;;;;;;;;5065285;28;20228;-63
2021/06/17 09:08:26;;;;;;;9.50;8.70;;;;;;;;;;5061443;28;20457;-64
2021/06/17 09:10:52;;;;;;;11.60;10.73;;;;;;;;;;5053511;28;20475;-64
2021/06/17 09:13:17;;;;;;;10.93;9.83;;;;;;;;;;5058985;28;20506;-61
2021/06/17 09:15:49;;;;;;;11.00;10.10;;;;;;;;;;5063869;28;20229;-59
2021/06/17 09:18:35;;;;;;;10.67;9.77;;;;;;;;;;5067013;28;20308;-59
2021/06/17 09:21:01;;;;;;;10.57;9.77;;;;;;;;;;5067938;28;20973;-62
2021/06/17 09:23:40;;;;;;;10.47;9.60;;;;;;;;;;5063092;28;20471;-64
2021/06/17 09:26:07;;;;;;;11.73;10.60;;;;;;;;;;5061036;28;20470;-64
2021/06/17 09:28:52;;;;;;;11.90;10.70;;;;;;;;;;5064138;28;20463;-62
2021/06/17 09:31:26;;;;;;;10.13;9.23;;;;;;;;;;5067812;28;20450;-64
2021/06/17 09:33:52;;;;;;;12.50;11.40;;;;;;;;;;5068228;28;20462;-64
2021/06/17 09:36:26;;;;;;;9.30;8.67;;;;;;;;;;5061260;28;20443;-64
2021/06/17 09:38:55;;;;;;;11.70;10.60;;;;;;;;;;5061621;28;20475;-60
2021/06/17 09:41:38;;;;;;;10.83;9.97;;;;;;;;;;5064689;28;20908;-64
2021/06/17 09:44:06;;;;;;;9.30;8.60;;;;;;;;;;5067510;28;20455;-64
2021/06/17 09:46:31;;;;;;;10.20;9.30;;;;;;;;;;5064597;28;20532;-64
2021/06/17 09:49:04;;;;;;;12.80;11.80;;;;;;;;;;5056822;28;20452;-61
2021/06/17 09:51:44;;;;;;;9.80;8.90;;;;;;;;;;5067525;28;20312;-65
2021/06/17 09:54:15;;;;;;;11.00;10.03;;;;;;;;;;5047297;28;20459;-60
2021/06/17 09:56:42;;;;;;;11.10;10.20;;;;;;;;;;5061813;28;20455;-60
2021/06/17 09:59:10;;;;;;;10.30;9.50;;;;;;;;;;5064011;28;20959;-61
2021/06/17 10:01:45;;;;;;;12.33;11.27;;;;;;;;;;5069022;28;20608;-65
2021/06/17 10:04:12;;;;;;;13.00;11.40;;;;;;;;;;5064318;28;20463;-65
2021/06/17 10:06:40;;;;;;;13.77;12.60;;;;;;;;;;5064107;28;20545;-64
2021/06/17 10:09:08;;;;;;;10.83;9.73;;;;;;;;;;5063316;28;20934;-64
2021/06/17 10:11:34;;;;;;;9.47;8.77;;;;;;;;;;5051047;28;20921;-65
2021/06/17 10:14:00;;;;;;;9.90;9.00;;;;;;;;;;5063384;28;20460;-64
2021/06/17 10:16:26;;;;;;;9.63;8.93;;;;;;;;;;5066641;28;20460;-64
2021/06/17 10:18:51;;;;;;;11.00;9.90;;;;;;;;;;5063947;28;20463;-64
2021/06/17 10:21:17;;;;;;;9.30;8.57;;;;;;;;;;5070531;28;20235;-64
2021/06/17 10:23:45;;;;;;;9.67;8.87;;;;;;;;;;5062499;28;20240;-63
2021/06/17 10:26:11;;;;;;;10.10;9.13;;;;;;;;;;5059130;28;20510;-60
2021/06/17 10:28:44;;;;;;;12.07;11.07;;;;;;;;;;5064173;28;20498;-59
2021/06/17 10:31:10;;;;;;;11.07;10.30;;;;;;;;;;5056087;28;20563;-60
2021/06/17 10:33:37;;;;;;;9.63;8.93;;;;;;;;;;5064313;28;20478;-60
2021/06/17 10:36:23;;;;;;;8.30;7.60;;;;;;;;;;5066856;28;20221;-59
2021/06/17 10:39:12;;;;;;;10.23;9.43;;;;;;;;;;5064826;28;20798;-64
2021/06/17 10:41:46;;;;;;;10.00;9.30;;;;;;;;;;5052849;28;20494;-64
2021/06/17 10:44:35;;;;;;;10.40;9.60;;;;;;;;;;5051850;28;20475;-63
2021/06/17 10:47:00;;;;;;;9.27;8.57;;;;;;;;;;5058823;28;20455;-64
2021/06/17 10:49:47;;;;;;;9.27;8.67;;;;;;;;;;5044789;28;20538;-64
2021/06/17 10:52:25;;;;;;;10.90;9.90;;;;;;;;;;5065889;28;20221;-64
2021/06/17 10:55:05;;;;;;;10.00;9.20;;;;;;;;;;5065561;28;20497;-64
2021/06/17 10:57:42;;;;;;;10.57;9.67;;;;;;;;;;5050085;28;20510;-63
2021/06/17 11:00:26;;;;;;;8.43;7.83;;;;;;;;;;5066497;28;20475;-64
2021/06/17 11:03:17;;;;;;;8.97;8.17;;;;;;;;;;5066154;28;20467;-63
2021/06/17 11:05:47;;;;;;;8.13;7.23;;;;;;;;;;5057498;28;20470;-64
2021/06/17 11:08:13;;;;;;;9.13;8.43;;;;;;;;;;5059578;28;20970;-64
2021/06/17 11:10:52;;;;;;;9.90;9.00;;;;;;;;;;5063125;28;20598;-64
2021/06/17 11:13:27;;;;;;;9.27;8.47;;;;;;;;;;5066515;28;20561;-64
2021/06/17 11:15:54;;;;;;;9.70;8.70;;;;;;;;;;5058153;28;20828;-64
2021/06/17 11:18:46;;;;;;;10.80;9.70;;;;;;;;;;5059438;28;20550;-63
2021/06/17 11:21:27;;;;;;;10.60;9.20;;;;;;;;;;5056862;28;20524;-64
2021/06/17 11:23:53;;;;;;;10.57;9.67;;;;;;;;;;5061143;28;20791;-64
2021/06/17 11:26:37;;;;;;;11.17;9.67;;;;;;;;;;5066944;28;20918;-64
2021/06/17 11:29:04;;;;;;;9.67;8.80;;;;;;;;;;5070039;28;20466;-63
2021/06/17 11:31:43;;;;;;;9.90;9.10;;;;;;;;;;5057135;28;20467;-64
2021/06/17 11:34:10;;;;;;;10.67;9.67;;;;;;;;;;5055686;28;20527;-64
2021/06/17 11:36:53;;;;;;;11.10;10.20;;;;;;;;;;5057101;28;20794;-64
2021/06/17 11:39:27;;;;;;;9.53;8.83;;;;;;;;;;5064274;28;20842;-64
2021/06/17 11:41:54;;;;;;;8.40;7.80;;;;;;;;;;5065259;28;20467;-65
2021/06/17 11:44:25;;;;;;;8.50;7.20;;;;;;;;;;5072524;28;20459;-65
2021/06/17 11:46:51;;;;;;;9.57;8.87;;;;;;;;;;5073390;28;20464;-64
2021/06/17 11:49:18;;;;;;;7.93;7.30;;;;;;;;;;5051337;28;20529;-65
2021/06/17 11:51:46;;;;;;;7.13;6.53;;;;;;;;;;5068643;28;20783;-63
2021/06/17 11:54:20;;;;;;;8.55;7.95;;;;;;;;;;5068517;28;20224;-64
2021/06/17 11:56:49;;;;;;;8.80;8.15;;;;;;;;;;5061434;28;20270;-65
2021/06/17 11:59:30;;;;;;;8.25;7.75;;;;;;;;;;5069746;28;20223;-64
2021/06/17 12:02:08;;;;;;;8.45;7.75;;;;;;;;;;5067875;28;20298;-65
2021/06/17 12:04:42;;;;;;;8.48;7.95;;;;;;;;;;5069588;28;20212;-64
2021/06/17 12:07:39;;;;;;;7.53;7.05;;;;;;;;;;5065604;28;20215;-63
2021/06/17 12:10:12;;;;;;;7.50;7.00;;;;;;;;;;5066400;28;20306;-64
2021/06/17 12:12:41;;;;;;;7.53;7.03;;;;;;;;;;5075586;28;20224;-64
2021/06/17 12:15:08;;;;;;;6.68;6.28;;;;;;;;;;5065663;28;20213;-64
2021/06/17 12:17:41;;;;;;;5.65;5.25;;;;;;;;;;5077929;28;20212;-64
2021/06/17 12:20:12;;;;;;;6.53;6.03;;;;;;;;;;5080374;28;20706;-64
2021/06/17 12:23:03;;;;;;;6.28;5.75;;;;;;;;;;5061710;28;20235;-64
2021/06/17 12:25:33;;;;;;;7.07;6.47;;;;;;;;;;5071460;28;20217;-63
2021/06/17 12:28:01;;;;;;;6.70;6.10;;;;;;;;;;5070104;28;20224;-64
2021/06/17 12:30:34;;;;;;;6.85;6.22;;;;;;;;;;5079026;28;20223;-64
2021/06/17 12:33:03;;;;;;;6.07;5.68;;;;;;;;;;5076784;28;20209;-64
2021/06/17 12:35:36;;;;;;;5.88;5.22;;;;;;;;;;5059666;28;20224;-64
2021/06/17 12:38:02;;;;;;;6.47;6.03;;;;;;;;;;5076609;28;20227;-64
2021/06/17 12:40:32;;;;;;;6.53;6.10;;;;;;;;;;5093795;28;20224;-64
2021/06/17 12:43:07;;;;;;;6.28;5.13;;;;;;;;;;5092963;28;20220;-64
2021/06/17 12:45:35;;;;;;;6.47;6.00;;;;;;;;;;5074877;28;20257;-64
2021/06/17 12:48:07;;;;;;;5.40;5.00;;;;;;;;;;5071030;28;20235;-64
2021/06/17 12:53:16;;;;;;;5.32;4.93;;;;;;;;;;5082709;28;20247;-64
2021/06/17 12:55:41;;;;;;;6.68;6.28;;;;;;;;;;5093825;28;20220;-64
2021/06/17 12:58:12;;;;;;;7.00;6.50;;;;;;;;;;5098155;28;20207;-64
2021/06/17 13:00:37;;;;;;;7.97;7.47;;;;;;;;;;5091895;28;20232;-65
2021/06/17 13:03:03;;;;;;;6.93;6.28;;;;;;;;;;5053124;28;20294;-64
2021/06/17 13:05:28;;;;;;;5.97;5.55;;;;;;;;;;5054360;28;20223;-64
2021/06/17 13:08:07;;;;;;;5.65;5.28;;;;;;;;;;5062268;28;20733;-65
2021/06/17 13:10:53;;;;;;;5.43;5.05;;;;;;;;;;5063843;28;20220;-64
2021/06/17 13:13:27;;;;;;;6.43;6.03;;;;;;;;;;5069378;28;20306;-65
2021/06/17 13:15:56;;;;;;;6.18;5.72;;;;;;;;;;5069954;28;20227;-64
2021/06/17 13:18:23;;;;;;;6.15;5.75;;;;;;;;;;5082395;28;20227;-65
2021/06/17 13:20:54;;;;;;;6.03;5.55;;;;;;;;;;5073037;28;20327;-60
2021/06/17 13:23:24;;;;;;;7.68;5.63;;;;;;;;;;5065562;28;20222;-61
2021/06/17 13:26:06;;;;;;;6.97;6.47;;;;;;;;;;5053895;28;20217;-60
2021/06/17 13:28:46;;;;;;;5.32;4.93;;;;;;;;;;5052679;28;20205;-60
2021/06/17 13:31:17;;;;;;;5.88;5.38;;;;;;;;;;5045587;28;20236;-60
2021/06/17 13:33:43;;;;;;;5.97;5.57;;;;;;;;;;5041964;28;20222;-61
2021/06/17 13:36:08;;;;;;;7.18;6.60;;;;;;;;;;5040181;28;20209;-61
2021/06/17 13:38:34;;;;;;;7.40;6.90;;;;;;;;;;5039202;28;20217;-60
2021/06/17 13:41:00;;;;;;;8.65;7.90;;;;;;;;;;5040588;28;20302;-61
2021/06/17 13:43:25;;;;;;;7.80;7.10;;;;;;;;;;5039902;28;20222;-61
2021/06/17 13:45:50;;;;;;;8.57;7.80;;;;;;;;;;5073547;28;20658;-61
2021/06/17 13:48:16;;;;;;;6.50;6.00;;;;;;;;;;5080300;28;20237;-60
2021/06/17 13:50:41;;;;;;;7.78;7.28;;;;;;;;;;5065343;28;20235;-60
2021/06/17 13:53:07;;;;;;;8.98;8.10;;;;;;;;;;5066753;28;20224;-61
2021/06/17 13:55:34;;;;;;;9.90;9.20;;;;;;;;;;5072454;28;20221;-61
2021/06/17 13:58:00;;;;;;;8.17;7.60;;;;;;;;;;5057336;28;20333;-61
2021/06/17 14:00:26;;;;;;;8.53;7.90;;;;;;;;;;5061870;28;20223;-61
2021/06/17 14:02:51;;;;;;;10.87;10.07;;;;;;;;;;5067086;28;20453;-61
2021/06/17 14:05:18;;;;;;;10.03;9.23;;;;;;;;;;5069410;28;20232;-61
2021/06/17 14:07:44;;;;;;;10.70;9.70;;;;;;;;;;5074399;28;20333;-60
2021/06/17 14:10:13;;;;;;;9.83;9.23;;;;;;;;;;5058339;28;20459;-61
2021/06/17 14:12:39;;;;;;;10.30;9.50;;;;;;;;;;5068572;28;20962;-61
2021/06/17 14:15:07;;;;;;;9.00;8.20;;;;;;;;;;5070044;28;20463;-59
2021/06/17 14:17:32;;;;;;;11.30;10.43;;;;;;;;;;5067887;28;20462;-61
2021/06/17 14:24:03;;;;;;;9.13;8.40;;;;;;;;;;5044001;28;20354;-60
2021/06/17 14:26:52;;;;;;;9.67;9.00;;;;;;;;;;5059389;28;20478;-61
2021/06/17 14:29:17;;;;;;;9.50;8.80;;;;;;;;;;5057860;28;21016;-60
2021/06/17 14:31:42;;;;;;;9.50;8.90;;;;;;;;;;5055156;28;20459;-60
2021/06/17 14:34:09;;;;;;;10.53;9.57;;;;;;;;;;5065380;28;20240;-61
2021/06/17 14:36:37;;;;;;;11.00;10.13;;;;;;;;;;5062637;28;20714;-61
2021/06/17 14:39:04;;;;;;;11.57;10.37;;;;;;;;;;5062464;28;20866;-59
2021/06/17 14:41:29;;;;;;;11.13;10.13;;;;;;;;;;5066331;28;20460;-60
2021/06/17 14:43:55;;;;;;;12.33;11.37;;;;;;;;;;5064014;28;20554;-61
2021/06/17 14:46:21;;;;;;;12.63;11.37;;;;;;;;;;5066841;28;20221;-61
2021/06/17 14:48:48;;;;;;;10.63;9.83;;;;;;;;;;5060072;28;20260;-61